< < Back
Terminal Aerodrome Forecast


Current Version              Previous Versions:   1  2  3  4  5  6  7  8  9  

Terminal Aerodrome Forecast

328
FTUS42 KMLB 231731
TAFDAB
TAF
KDAB 231731Z 2318/2418 07009KT P6SM SCT050
     FM240100 VRB03KT P6SM FEW040 SCT060=

Latest METAR

566
SAUS80 KWBC 240900 CCA
MTRDAB
METAR KDAB 240853Z 00000KT 10SM FEW070 19/17 A3003 RMK AO2 SLP168
T01890172 55002


USA.gov is the U.S. government's official web portal to all federal, state and local government web resources and services.